Time;durP1;ratioP1;P1;durP2;ratioP2;P2;SDS_P1;SDS_P2;PMS_P1;PMS_P2;Temp;Humidity;BMP_temperature;BMP_pressure;BME280_temperature;BME280_humidity;BME280_pressure;Samples;Min_cycle;Max_cycle;Signal;HPM_P1;HPM_P2
2023/09/19 00:01:15;;;;;;;;;1.00;1.00;;;;;28.72;41.38;101145.63;5038003;28;46473;-74
2023/09/19 00:03:41;;;;;;;;;0.00;0.00;;;;;28.75;41.56;101150.56;5037702;28;45372;-75
2023/09/19 00:06:07;;;;;;;;;0.00;0.00;;;;;28.75;41.80;101155.91;5038033;28;45469;-75
2023/09/19 00:08:33;;;;;;;;;0.00;0.00;;;;;28.72;41.31;101143.78;5036642;28;45502;-76
2023/09/19 00:11:05;;;;;;;;;1.67;1.00;;;;;28.72;41.31;101151.00;5037620;28;46225;-75
2023/09/19 00:13:36;;;;;;;;;0.00;0.00;;;;;28.75;41.33;101153.25;5037198;28;45410;-75
2023/09/19 00:16:07;;;;;;;;;0.33;0.33;;;;;28.78;41.10;101157.34;5037721;28;45364;-76
2023/09/19 00:18:34;;;;;;;;;1.00;1.00;;;;;28.76;41.35;101154.84;5036830;28;45300;-75
2023/09/19 00:21:00;;;;;;;;;0.00;0.00;;;;;28.65;41.39;101132.28;5037494;28;46267;-75
2023/09/19 00:23:26;;;;;;;;;1.00;0.00;;;;;28.70;41.14;101140.50;5037389;28;45758;-75
2023/09/19 00:25:52;;;;;;;;;2.00;0.00;;;;;27.95;41.66;101020.63;5037647;28;45329;-76
2023/09/19 00:28:19;;;;;;;;;1.00;1.00;;;;;28.73;41.92;101142.72;5037086;28;45356;-76
2023/09/19 00:30:45;;;;;;;;;1.67;1.67;;;;;28.72;41.74;101133.09;5037220;28;46496;-75
2023/09/19 00:33:16;;;;;;;;;0.00;0.00;;;;;28.65;41.35;101126.16;5037291;28;45401;-76
2023/09/19 00:35:47;;;;;;;;;0.67;0.00;;;;;28.71;41.57;101142.13;5037568;28;45444;-75
2023/09/19 00:38:15;;;;;;;;;1.00;0.00;;;;;28.72;41.77;101145.63;5037295;28;45464;-75
2023/09/19 00:40:44;;;;;;;;;0.00;0.00;;;;;28.71;41.44;101146.66;5035951;28;46353;-75
2023/09/19 00:43:09;;;;;;;;;0.00;0.00;;;;;28.56;41.34;101128.25;5036683;28;45673;-75
2023/09/19 00:45:38;;;;;;;;;0.00;0.00;;;;;28.70;41.86;101153.88;5037153;28;45328;-75
2023/09/19 00:48:06;;;;;;;;;0.00;0.00;;;;;28.58;41.77;101131.53;5037272;28;45293;-75
2023/09/19 00:50:32;;;;;;;;;0.33;0.00;;;;;28.65;41.68;101144.88;5036965;28;46381;-76
2023/09/19 00:52:58;;;;;;;;;0.00;0.00;;;;;28.70;41.93;101155.75;5037110;28;45420;-76
2023/09/19 00:55:24;;;;;;;;;0.33;0.33;;;;;28.59;41.79;101135.84;5037020;28;45425;-75
2023/09/19 00:57:50;;;;;;;;;2.00;0.00;;;;;28.49;41.68;101117.63;5036676;28;45401;-75
2023/09/19 01:00:16;;;;;;;;;0.00;0.00;;;;;28.71;41.60;101147.50;5036658;28;46181;-76
2023/09/19 01:02:45;;;;;;;;;3.00;1.00;;;;;28.62;41.42;101132.75;5036704;28;45486;-76
2023/09/19 01:05:12;;;;;;;;;0.67;0.67;;;;;28.72;41.21;101153.66;5037002;28;45293;-76
2023/09/19 01:07:41;;;;;;;;;0.00;0.00;;;;;28.72;41.27;101153.66;5036893;28;45479;-76
2023/09/19 01:10:10;;;;;;;;;0.00;0.00;;;;;28.64;41.41;101146.72;5036764;28;46201;-76
2023/09/19 01:12:44;;;;;;;;;0.00;0.00;;;;;28.73;41.31;101163.31;5036612;28;45347;-74
2023/09/19 01:15:28;;;;;;;;;0.33;0.33;;;;;28.71;41.45;101162.72;5036934;28;45367;-76
2023/09/19 01:18:02;;;;;;;;;0.00;0.00;;;;;28.74;41.73;101159.63;5036900;28;45360;-76
2023/09/19 01:20:39;;;;;;;;;1.33;0.00;;;;;28.75;41.46;101174.66;5036760;28;45922;-77
2023/09/19 01:23:09;;;;;;;;;1.00;1.00;;;;;28.74;41.78;101173.00;5036685;28;45356;-76
2023/09/19 01:25:47;;;;;;;;;2.00;1.00;;;;;28.73;41.75;101166.81;5036495;28;45418;-76
2023/09/19 01:28:37;;;;;;;;;0.00;0.00;;;;;28.72;41.50;101175.91;5036526;28;45412;-76
2023/09/19 01:31:09;;;;;;;;;2.00;0.00;;;;;28.62;41.35;101157.63;5036597;28;46482;-76
2023/09/19 01:33:59;;;;;;;;;0.33;0.00;;;;;28.72;41.70;101183.13;5035118;28;45492;-75
2023/09/19 01:36:36;;;;;;;;;0.00;0.00;;;;;28.72;41.37;101175.09;5036638;28;45362;-75
2023/09/19 01:39:09;;;;;;;;;0.67;0.67;;;;;28.71;41.25;101174.25;5036391;28;45450;-75
2023/09/19 01:41:46;;;;;;;;;0.33;0.33;;;;;28.71;41.67;101173.44;5035736;28;46193;-75
2023/09/19 01:44:22;;;;;;;;;0.00;0.00;;;;;28.70;41.26;101174.50;5035027;28;45521;-75
2023/09/19 01:46:48;;;;;;;;;0.00;0.00;;;;;28.67;41.26;101172.25;5036463;28;45343;-75
2023/09/19 01:49:37;;;;;;;;;0.33;0.33;;;;;28.66;41.79;101166.06;5036420;28;45350;-74
2023/09/19 01:52:21;;;;;;;;;0.00;0.00;;;;;28.68;41.51;101176.53;5036375;28;45406;-76
2023/09/19 01:54:51;;;;;;;;;0.00;0.00;;;;;28.68;41.63;101173.88;5036022;28;45339;-75
2023/09/19 01:57:54;;;;;;;;;0.33;0.33;;;;;28.67;41.35;101182.94;5036398;28;45352;-75
2023/09/19 02:00:23;;;;;;;;;0.00;0.00;;;;;28.67;41.56;101180.28;5014017;28;45503;-75
2023/09/19 02:02:49;;;;;;;;;0.00;0.00;;;;;28.64;41.70;101176.19;5013512;28;46231;-75
2023/09/19 02:05:25;;;;;;;;;1.33;1.00;;;;;28.68;41.58;101169.34;5013636;28;45374;-75
2023/09/19 02:07:52;;;;;;;;;0.00;0.00;;;;;28.48;41.98;101156.13;5014330;28;45446;-75
2023/09/19 02:10:18;;;;;;;;;0.00;0.00;;;;;28.56;41.13;101171.91;5013645;28;45479;-75
2023/09/19 02:12:43;;;;;;;;;1.67;0.00;;;;;28.71;41.59;101192.19;5013992;28;45974;-75
2023/09/19 02:15:09;;;;;;;;;1.00;1.00;;;;;28.70;41.50;101179.84;5013847;28;45456;-76
2023/09/19 02:17:34;;;;;;;;;0.33;0.00;;;;;28.49;41.13;101145.22;5013990;28;45628;-75
2023/09/19 02:20:00;;;;;;;;;2.00;0.67;;;;;28.68;41.67;101172.00;5013787;28;45365;-75
2023/09/19 02:22:26;;;;;;;;;1.00;0.00;;;;;28.73;41.44;101176.72;5013657;28;45444;-75
2023/09/19 02:24:53;;;;;;;;;0.67;0.67;;;;;28.44;41.35;101134.31;5013120;28;45577;-75
2023/09/19 02:27:19;;;;;;;;;1.33;1.33;;;;;28.71;41.71;101179.63;5013737;28;45532;-75
2023/09/19 02:29:44;;;;;;;;;1.33;0.00;;;;;28.70;41.52;101177.97;5013662;28;45538;-75
2023/09/19 02:32:10;;;;;;;;;1.33;0.67;;;;;28.70;41.47;101172.63;5013398;28;46187;-75
2023/09/19 02:34:39;;;;;;;;;0.00;0.00;;;;;28.69;41.68;101176.34;5013435;28;45419;-75
2023/09/19 02:37:05;;;;;;;;;2.00;0.00;;;;;28.38;41.80;101129.81;5025415;28;45347;-75
2023/09/19 02:39:34;;;;;;;;;0.33;0.00;;;;;28.38;41.60;101129.81;5035350;28;45593;-75
2023/09/19 02:42:00;;;;;;;;;0.00;0.00;;;;;28.60;41.58;101161.56;5038801;28;46090;-75
2023/09/19 02:44:25;;;;;;;;;0.33;0.33;;;;;28.65;41.75;101163.63;5039076;28;45387;-75
2023/09/19 02:46:51;;;;;;;;;1.33;0.00;;;;;28.63;41.55;101169.16;5039102;28;45460;-75
2023/09/19 02:49:17;;;;;;;;;0.00;0.00;;;;;28.66;41.71;101175.94;5039133;28;45555;-75
2023/09/19 02:51:44;;;;;;;;;0.00;0.00;;;;;28.51;41.60;101164.53;5039119;28;47238;-75
2023/09/19 02:54:09;;;;;;;;;0.00;0.00;;;;;28.58;41.80;101160.97;5038473;28;45442;-75
2023/09/19 02:56:35;;;;;;;;;0.00;0.00;;;;;28.64;41.55;101178.84;5039061;28;45324;-75
2023/09/19 02:59:01;;;;;;;;;0.00;0.00;;;;;28.59;41.48;101174.16;5038992;28;45462;-75
2023/09/19 03:01:27;;;;;;;;;0.33;0.33;;;;;28.49;41.84;101160.44;5037579;28;47060;-75
2023/09/19 03:03:53;;;;;;;;;0.00;0.00;;;;;28.53;41.88;101169.66;5038759;28;45371;-75
2023/09/19 03:06:20;;;;;;;;;0.00;0.00;;;;;28.62;41.78;101186.28;5038756;28;45389;-75
2023/09/19 03:08:46;;;;;;;;;1.00;0.00;;;;;28.67;41.61;101180.28;5038621;28;46081;-76
2023/09/19 03:11:14;;;;;;;;;0.67;0.00;;;;;28.60;41.66;101165.06;5038632;28;46125;-75
2023/09/19 03:13:41;;;;;;;;;0.00;0.00;;;;;28.52;41.31;101155.47;5038563;28;45332;-76
2023/09/19 03:16:06;;;;;;;;;0.00;0.00;;;;;28.67;41.96;101189.13;5038781;28;45419;-75
2023/09/19 03:18:33;;;;;;;;;1.00;1.00;;;;;28.64;41.42;101176.19;5038468;28;45626;-75
2023/09/19 03:21:00;;;;;;;;;0.67;0.67;;;;;28.63;41.13;101182.56;5036951;28;46134;-75
2023/09/19 03:23:26;;;;;;;;;0.00;0.00;;;;;28.63;41.51;101171.84;5038439;28;45491;-75
2023/09/19 03:25:52;;;;;;;;;0.00;0.00;;;;;28.54;41.32;101168.63;5038340;28;45333;-75
2023/09/19 03:28:18;;;;;;;;;0.00;0.00;;;;;28.70;41.65;101182.53;5038397;28;45383;-75
2023/09/19 03:30:44;;;;;;;;;2.00;0.00;;;;;28.69;41.10;101171.00;5038084;28;46194;-75
2023/09/19 03:33:11;;;;;;;;;0.00;0.00;;;;;28.69;41.43;101181.69;5038098;28;45568;-74
2023/09/19 03:35:38;;;;;;;;;0.00;0.00;;;;;28.68;41.85;101177.38;5038204;28;45428;-75
2023/09/19 03:38:04;;;;;;;;;0.00;0.00;;;;;28.64;41.74;101178.84;5038249;28;45404;-75
2023/09/19 03:40:29;;;;;;;;;0.00;0.00;;;;;28.64;41.42;101173.50;5038194;28;46217;-75
2023/09/19 03:42:55;;;;;;;;;0.00;0.00;;;;;28.12;41.59;101094.19;5037903;28;45437;-75
2023/09/19 03:45:20;;;;;;;;;0.00;0.00;;;;;28.57;41.59;101164.72;5038312;28;45383;-75
2023/09/19 03:47:48;;;;;;;;;0.00;0.00;;;;;28.60;41.71;101180.31;5038277;28;45356;-75
2023/09/19 03:50:17;;;;;;;;;0.00;0.00;;;;;27.69;41.75;101046.47;5037711;28;46351;-76
2023/09/19 03:52:45;;;;;;;;;0.00;0.00;;;;;28.63;42.04;101190.59;5036711;28;45285;-75
2023/09/19 03:55:10;;;;;;;;;1.00;0.00;;;;;28.62;41.55;101195.13;5038221;28;45332;-76
2023/09/19 03:57:36;;;;;;;;;0.33;0.33;;;;;28.24;41.83;101139.78;5037995;28;45291;-75
2023/09/19 04:00:02;;;;;;;;;0.00;0.00;;;;;28.25;42.10;101130.72;5037782;28;47224;-76
2023/09/19 04:02:32;;;;;;;;;1.67;0.00;;;;;28.02;41.63;101095.47;5037724;28;45345;-76
2023/09/19 04:04:58;;;;;;;;;1.33;0.00;;;;;28.62;41.21;101189.75;5037475;28;45426;-75
2023/09/19 04:07:25;;;;;;;;;0.00;0.00;;;;;28.58;41.96;101183.22;5037695;28;45429;-75
2023/09/19 04:09:53;;;;;;;;;0.67;0.67;;;;;28.52;41.47;101173.41;5037799;28;45335;-76
2023/09/19 04:12:18;;;;;;;;;1.33;0.33;;;;;28.01;41.56;101101.03;5037665;28;45327;-76
2023/09/19 04:14:44;;;;;;;;;0.00;0.00;;;;;28.64;41.68;101205.63;5036350;28;45340;-76
2023/09/19 04:17:10;;;;;;;;;0.00;0.00;;;;;28.61;41.63;101198.03;5037754;28;45506;-76
2023/09/19 04:19:36;;;;;;;;;0.00;0.00;;;;;28.65;41.39;101201.09;5037171;28;45536;-75
2023/09/19 04:22:01;;;;;;;;;1.00;1.00;;;;;28.11;41.86;101121.94;5037488;28;45313;-73
2023/09/19 04:24:27;;;;;;;;;0.00;0.00;;;;;28.42;41.55;101171.16;5037672;28;45313;-76
2023/09/19 04:26:52;;;;;;;;;0.00;0.00;;;;;28.38;41.36;101172.63;5037589;28;45423;-75
2023/09/19 04:29:19;;;;;;;;;2.33;0.00;;;;;28.56;41.44;101195.19;5037277;28;46583;-76
2023/09/19 04:31:45;;;;;;;;;0.33;0.33;;;;;28.68;40.97;101211.34;5037104;28;45350;-76
2023/09/19 04:34:17;;;;;;;;;0.00;0.00;;;;;28.60;41.17;101194.53;5037147;28;45341;-76
2023/09/19 04:36:43;;;;;;;;;0.00;0.00;;;;;28.54;41.59;101181.19;5037421;28;45360;-75
2023/09/19 04:39:10;;;;;;;;;2.00;0.67;;;;;28.62;41.64;101192.44;5037048;28;46259;-75
2023/09/19 04:41:38;;;;;;;;;0.00;0.00;;;;;28.35;41.29;101170.38;5037148;28;45484;-75
2023/09/19 04:44:04;;;;;;;;;0.00;0.00;;;;;28.60;41.37;101199.88;5037147;28;45376;-73
2023/09/19 04:46:30;;;;;;;;;0.67;0.00;;;;;28.56;41.29;101200.53;5037115;28;45301;-75
2023/09/19 04:48:55;;;;;;;;;0.00;0.00;;;;;28.55;41.87;101193.56;5036736;28;46450;-76
2023/09/19 04:51:20;;;;;;;;;1.67;0.00;;;;;28.40;41.68;101181.25;5037148;28;45284;-76
2023/09/19 04:53:46;;;;;;;;;1.00;0.00;;;;;28.37;41.36;101174.47;5037271;28;45342;-76
2023/09/19 04:56:11;;;;;;;;;0.67;0.00;;;;;28.51;42.11;101187.81;5037147;28;45331;-76
2023/09/19 04:58:36;;;;;;;;;1.00;1.00;;;;;28.61;41.79;101200.69;5036974;28;45458;-75
2023/09/19 05:01:02;;;;;;;;;0.00;0.00;;;;;27.97;41.56;101111.34;5037035;28;45510;-76
2023/09/19 05:03:28;;;;;;;;;0.00;0.00;;;;;28.42;41.59;101173.03;5036047;28;45275;-76
2023/09/19 05:05:54;;;;;;;;;0.00;0.00;;;;;28.54;41.76;101200.75;5036829;28;45606;-76
2023/09/19 05:08:19;;;;;;;;;0.00;0.00;;;;;28.59;41.42;101202.78;5036590;28;46124;-76
2023/09/19 05:10:45;;;;;;;;;0.00;0.00;;;;;28.44;41.57;101193.19;5036852;28;45427;-75
2023/09/19 05:13:11;;;;;;;;;0.00;0.00;;;;;28.58;42.05;101209.97;5036875;28;45379;-75
2023/09/19 05:15:37;;;;;;;;;3.00;0.00;;;;;28.39;41.61;101180.41;5036883;28;45412;-76
2023/09/19 05:18:03;;;;;;;;;1.00;0.00;;;;;28.54;41.79;101200.75;5035951;28;46052;-75
2023/09/19 05:20:33;;;;;;;;;0.00;0.00;;;;;27.98;41.94;101117.50;5036662;28;45368;-75
2023/09/19 05:23:02;;;;;;;;;1.33;0.33;;;;;28.61;41.69;101211.41;5036777;28;45469;-76
2023/09/19 05:25:32;;;;;;;;;0.00;0.00;;;;;28.59;41.69;101202.78;5036602;28;45287;-75
2023/09/19 05:27:58;;;;;;;;;0.00;0.00;;;;;28.62;41.30;101205.81;5036335;28;46728;-75
2023/09/19 05:30:27;;;;;;;;;0.00;0.00;;;;;28.58;41.73;101199.28;5036439;28;45354;-76
2023/09/19 05:32:54;;;;;;;;;0.00;0.00;;;;;28.53;41.71;101185.72;5036021;28;45443;-76
2023/09/19 05:35:21;;;;;;;;;2.00;0.00;;;;;28.60;41.65;101201.72;5036427;28;45421;-76
2023/09/19 05:37:48;;;;;;;;;0.33;0.00;;;;;28.51;41.38;101190.47;5036154;28;46231;-76
2023/09/19 05:40:14;;;;;;;;;0.00;0.00;;;;;28.61;41.64;101204.19;5036258;28;45443;-76
2023/09/19 05:42:41;;;;;;;;;0.00;0.00;;;;;28.59;41.08;101208.97;5036327;28;45413;-76
2023/09/19 05:45:06;;;;;;;;;1.00;1.00;;;;;28.61;41.54;101208.72;5036413;28;45334;-76
2023/09/19 05:47:32;;;;;;;;;0.00;0.00;;;;;28.50;41.53;101189.66;5035739;28;46098;-76
2023/09/19 05:49:59;;;;;;;;;0.00;0.00;;;;;28.59;41.60;101202.78;5036350;28;45355;-76
2023/09/19 05:52:25;;;;;;;;;0.00;0.00;;;;;28.41;41.47;101174.88;5036310;28;45213;-75
2023/09/19 05:54:50;;;;;;;;;1.00;0.00;;;;;28.59;41.91;101203.59;5036200;28;45513;-76
2023/09/19 05:57:16;;;;;;;;;1.00;1.00;;;;;28.51;41.63;101182.44;5036094;28;45334;-76
2023/09/19 05:59:42;;;;;;;;;1.00;1.00;;;;;28.59;41.49;101202.78;5035984;28;45511;-75
2023/09/19 06:02:09;;;;;;;;;1.00;1.00;;;;;28.59;41.83;101200.94;5035794;28;45353;-75
2023/09/19 06:04:35;;;;;;;;;1.00;0.00;;;;;28.51;41.77;101187.81;5035883;28;45275;-77
2023/09/19 06:07:00;;;;;;;;;0.00;0.00;;;;;28.55;41.75;101205.06;5035864;28;45870;-76
2023/09/19 06:09:27;;;;;;;;;1.33;0.67;;;;;28.59;41.41;101208.13;5035009;28;45520;-75
2023/09/19 06:11:53;;;;;;;;;0.00;0.00;;;;;28.49;41.85;101187.19;5035593;28;45410;-75
2023/09/19 06:14:18;;;;;;;;;0.00;0.00;;;;;27.45;42.00;101034.69;5035077;28;45331;-72
2023/09/19 06:16:44;;;;;;;;;0.00;0.00;;;;;28.48;37.59;101210.47;5034875;28;46472;-76
2023/09/19 06:19:09;;;;;;;;;1.00;1.00;;;;;28.25;38.03;101213.66;5035467;28;45301;-78
2023/09/19 06:21:36;;;;;;;;;1.00;1.00;;;;;28.06;38.11;101200.97;5036158;28;45426;-79
2023/09/19 06:24:02;;;;;;;;;1.67;1.00;;;;;27.91;37.72;101193.25;5034628;28;45538;-77
2023/09/19 06:26:28;;;;;;;;;0.67;0.67;;;;;27.96;38.03;101204.13;5032924;28;47406;-75
2023/09/19 06:28:55;;;;;;;;;4.00;0.67;;;;;27.93;37.09;101209.06;5033578;28;45481;-75
2023/09/19 06:31:22;;;;;;;;;1.00;1.00;;;;;27.55;36.99;101171.34;5034412;28;45340;-77
2023/09/19 06:33:48;;;;;;;;;3.00;1.00;;;;;27.60;36.86;101208.13;5034976;28;45238;-75
2023/09/19 06:36:13;;;;;;;;;3.33;0.00;;;;;27.39;37.22;101205.50;5034763;28;46085;-76
2023/09/19 06:38:39;;;;;;;;;4.00;1.00;;;;;27.05;36.32;101177.97;5030152;28;45472;-75
2023/09/19 06:41:05;;;;;;;;;2.00;1.00;;;;;27.14;36.41;101214.13;5033429;28;45303;-75
2023/09/19 06:43:33;;;;;;;;;1.00;1.00;;;;;27.00;37.10;101218.66;5035045;28;45445;-78
2023/09/19 06:46:02;;;;;;;;;1.67;0.00;;;;;26.93;36.74;101215.16;5034801;28;47228;-76
2023/09/19 06:48:32;;;;;;;;;1.67;1.00;;;;;26.83;36.84;101199.53;5035553;28;45884;-79
2023/09/19 06:50:58;;;;;;;;;3.00;0.67;;;;;26.65;36.81;101170.78;5035188;28;45415;-76
2023/09/19 06:53:24;;;;;;;;;2.00;1.00;;;;;26.91;36.70;101204.66;5034695;28;45373;-76
2023/09/19 06:55:50;;;;;;;;;2.33;0.33;;;;;26.93;36.53;101210.63;5034791;28;46654;-76
2023/09/19 06:58:16;;;;;;;;;1.00;1.00;;;;;26.77;36.66;101184.34;5034474;28;45406;-76
2023/09/19 07:00:42;;;;;;;;;1.33;1.00;;;;;27.02;37.15;101216.59;5034217;28;45395;-75
2023/09/19 07:03:11;;;;;;;;;3.33;2.00;;;;;27.03;37.15;101210.22;5035031;28;45914;-77
2023/09/19 07:05:38;;;;;;;;;1.33;0.67;;;;;27.22;37.26;101226.47;5035239;28;46304;-76
2023/09/19 07:08:05;;;;;;;;;3.67;2.33;;;;;27.31;37.94;101224.41;5034961;28;45423;-78
2023/09/19 07:10:32;;;;;;;;;1.00;1.00;;;;;27.39;37.43;101218.03;5035097;28;45293;-77
2023/09/19 07:13:11;;;;;;;;;2.00;2.00;;;;;27.45;37.40;101203.03;5034991;28;45390;-77
2023/09/19 07:15:41;;;;;;;;;2.33;1.00;;;;;27.56;37.51;101213.06;5034853;28;46279;-77
2023/09/19 07:18:10;;;;;;;;;4.00;1.00;;;;;27.59;37.59;101201.94;5035000;28;45316;-75
2023/09/19 07:20:36;;;;;;;;;1.33;1.00;;;;;27.73;37.76;101217.94;5035062;28;45472;-77
2023/09/19 07:23:02;;;;;;;;;3.00;1.33;;;;;27.70;37.60;101194.31;5035155;28;45376;-75
2023/09/19 07:25:28;;;;;;;;;3.33;1.00;;;;;27.90;37.71;101209.47;5034963;28;45535;-76
2023/09/19 07:27:59;;;;;;;;;1.67;1.67;;;;;27.98;37.96;101209.25;5037883;28;45399;-78
2023/09/19 07:30:26;;;;;;;;;3.33;1.00;;;;;27.96;37.76;101204.13;5038477;28;45286;-77
2023/09/19 07:32:52;;;;;;;;;3.33;1.00;;;;;28.01;37.95;101192.78;5038253;28;45531;-77
2023/09/19 07:35:19;;;;;;;;;0.00;0.00;;;;;28.13;38.19;101200.94;5038276;28;46148;-77
2023/09/19 07:37:49;;;;;;;;;2.33;1.33;;;;;28.11;38.06;101183.47;5038008;28;45389;-78
2023/09/19 07:40:15;;;;;;;;;0.67;0.33;;;;;28.23;38.19;101195.16;5038422;28;45388;-75
2023/09/19 07:42:40;;;;;;;;;0.33;0.33;;;;;28.30;37.78;101197.78;5037791;28;45443;-75
2023/09/19 07:45:07;;;;;;;;;1.00;1.00;;;;;28.36;37.97;101194.25;5022050;28;46452;-75
2023/09/19 07:47:33;;;;;;;;;1.33;1.00;;;;;28.43;38.11;101198.72;5032633;28;45474;-77
2023/09/19 07:50:02;;;;;;;;;1.00;1.00;;;;;28.45;38.01;101186.81;5032432;28;45966;-75
2023/09/19 07:52:27;;;;;;;;;3.67;1.00;;;;;28.47;37.86;101182.06;5033354;28;45499;-76
2023/09/19 07:54:53;;;;;;;;;1.00;1.00;;;;;28.59;38.29;101187.53;5032392;28;47470;-76
2023/09/19 07:57:19;;;;;;;;;1.00;1.00;;;;;28.67;38.05;101181.09;5032519;28;45535;-76
2023/09/19 07:59:45;;;;;;;;;2.00;2.00;;;;;28.72;38.14;101183.94;5032494;28;45631;-76
2023/09/19 08:02:15;;;;;;;;;1.33;1.33;;;;;28.77;38.34;101179.78;5032571;28;45622;-75
2023/09/19 08:04:42;;;;;;;;;0.33;0.33;;;;;28.76;38.39;101164.75;5063081;28;46161;-76
2023/09/19 08:07:11;;;;;;;;;2.00;0.00;;;;;28.86;38.58;101181.13;5032415;28;45549;-75
2023/09/19 08:09:38;;;;;;;;;1.33;1.00;;;;;28.91;38.50;101170.59;5032322;28;45550;-76
2023/09/19 08:12:04;;;;;;;;;1.00;1.00;;;;;28.96;38.36;101175.31;5032277;28;45579;-75
2023/09/19 08:14:29;;;;;;;;;1.00;1.00;;;;;28.98;38.20;101177.75;5031865;28;46073;-75
2023/09/19 08:16:58;;;;;;;;;0.33;0.33;;;;;28.99;38.11;101171.38;5032387;28;45595;-75
2023/09/19 08:19:28;;;;;;;;;4.00;0.00;;;;;28.95;38.59;101163.78;5032431;28;45415;-75
2023/09/19 08:21:58;;;;;;;;;1.67;1.00;;;;;28.99;38.48;101177.53;5032540;28;45676;-75
2023/09/19 08:24:30;;;;;;;;;0.00;0.00;;;;;28.91;38.26;101175.94;5032053;28;46238;-75
2023/09/19 08:26:57;;;;;;;;;3.00;0.67;;;;;29.00;38.64;101187.22;5031796;28;45466;-75
2023/09/19 08:29:30;;;;;;;;;1.00;1.00;;;;;29.06;38.68;101185.50;5031866;28;45523;-75
2023/09/19 08:31:58;;;;;;;;;2.00;0.00;;;;;29.07;38.40;101195.16;5032141;28;45835;-75
2023/09/19 08:34:24;;;;;;;;;1.67;1.67;;;;;29.13;38.34;101193.50;5032267;28;45567;-75
2023/09/19 08:36:57;;;;;;;;;1.33;1.33;;;;;29.06;38.54;101172.13;5031650;28;45463;-75
2023/09/19 08:39:24;;;;;;;;;0.00;0.00;;;;;29.22;38.60;101199.41;5031199;28;45468;-74
2023/09/19 08:41:49;;;;;;;;;2.00;2.00;;;;;29.27;38.25;101184.31;5031374;28;45374;-74
2023/09/19 08:44:15;;;;;;;;;0.00;0.00;;;;;29.22;38.34;101178.81;5031604;28;46455;-75
2023/09/19 08:46:41;;;;;;;;;3.00;1.00;;;;;29.32;38.47;101183.66;5030244;28;45610;-75
2023/09/19 08:49:36;;;;;;;;;0.67;0.67;;;;;29.40;38.52;101198.63;5032029;28;45454;-75
2023/09/19 08:52:16;;;;;;;;;0.00;0.00;;;;;29.40;38.43;101179.84;5032094;28;45507;-75
2023/09/19 08:54:41;;;;;;;;;3.00;1.00;;;;;29.45;38.27;101193.41;5031013;28;46604;-75
2023/09/19 08:57:10;;;;;;;;;2.00;0.00;;;;;29.43;38.52;101192.00;5031656;28;45484;-75
2023/09/19 08:59:39;;;;;;;;;1.67;1.00;;;;;29.41;38.30;101192.19;5031346;28;45643;-75
2023/09/19 09:02:11;;;;;;;;;1.00;1.00;;;;;29.53;38.62;101200.34;5031686;28;45541;-74
2023/09/19 09:04:40;;;;;;;;;1.00;1.00;;;;;29.52;38.46;101199.50;5031063;28;46267;-75
2023/09/19 09:07:10;;;;;;;;;0.67;0.67;;;;;29.60;38.55;101208.28;5031372;28;45724;-75
2023/09/19 09:09:36;;;;;;;;;2.00;1.00;;;;;29.54;38.42;101185.03;5031045;28;45420;-76
2023/09/19 09:12:02;;;;;;;;;0.67;0.67;;;;;29.66;38.33;101204.72;5031774;28;45624;-77
2023/09/19 09:14:29;;;;;;;;;1.00;1.00;;;;;29.69;38.28;101200.78;5032099;28;46796;-75
2023/09/19 09:16:58;;;;;;;;;0.00;0.00;;;;;29.67;38.33;101189.44;5031536;28;45549;-75
2023/09/19 09:19:24;;;;;;;;;2.00;1.00;;;;;29.72;38.54;101197.66;5031895;28;45413;-75
2023/09/19 09:21:51;;;;;;;;;1.67;1.67;;;;;29.74;38.20;101191.03;5031466;28;46555;-75
2023/09/19 09:24:30;;;;;;;;;0.00;0.00;;;;;29.75;38.29;101186.47;5031073;28;46996;-74
2023/09/19 09:26:58;;;;;;;;;1.67;1.67;;;;;29.74;38.48;101188.34;5031849;28;45860;-74
2023/09/19 09:29:43;;;;;;;;;0.67;0.00;;;;;29.73;38.40;101186.72;5031910;28;45822;-74
2023/09/19 09:32:19;;;;;;;;;1.00;1.00;;;;;29.71;38.35;101175.41;5031231;28;45627;-75
2023/09/19 09:34:47;;;;;;;;;0.00;0.00;;;;;29.67;38.37;101178.72;5031389;28;45442;-74
2023/09/19 09:37:20;;;;;;;;;2.00;0.33;;;;;29.66;38.40;101179.75;5031203;28;45403;-75
2023/09/19 09:39:58;;;;;;;;;0.00;0.00;;;;;29.62;38.65;101172.16;5030682;28;45601;-75
2023/09/19 09:42:38;;;;;;;;;2.33;2.33;;;;;29.60;38.79;101168.91;5031542;28;45688;-75
2023/09/19 09:45:16;;;;;;;;;0.33;0.33;;;;;29.59;38.63;101172.63;5028317;28;46330;-75
2023/09/19 09:47:55;;;;;;;;;1.00;1.00;;;;;29.58;38.84;101165.63;5030604;28;45674;-74
2023/09/19 09:50:44;;;;;;;;;1.00;1.00;;;;;29.50;38.71;101164.06;5031070;28;45499;-74
2023/09/19 09:53:21;;;;;;;;;1.00;0.00;;;;;29.51;38.77;101164.88;5031148;28;45748;-75
2023/09/19 09:56:06;;;;;;;;;0.33;0.33;;;;;29.56;39.11;101166.91;5030789;28;47239;-75
2023/09/19 09:58:34;;;;;;;;;1.00;1.00;;;;;29.46;38.67;101154.03;5030925;28;45524;-75
2023/09/19 10:01:02;;;;;;;;;2.33;0.33;;;;;29.54;38.94;101171.63;5031401;28;45439;-74
2023/09/19 10:03:34;;;;;;;;;0.33;0.33;;;;;29.54;38.73;101166.28;5027934;28;45630;-76
2023/09/19 10:06:02;;;;;;;;;1.00;1.00;;;;;29.54;38.77;101166.28;5030753;28;47355;-74
2023/09/19 10:08:31;;;;;;;;;0.00;0.00;;;;;29.47;38.77;101156.47;5031395;28;45467;-75
2023/09/19 10:11:04;;;;;;;;;0.00;0.00;;;;;29.52;38.90;101167.34;5031344;28;45638;-74
2023/09/19 10:13:31;;;;;;;;;0.67;0.00;;;;;29.49;39.01;101158.91;5031003;28;45404;-74
2023/09/19 10:16:03;;;;;;;;;0.00;0.00;;;;;29.51;38.93;101149.59;5030992;28;45489;-75
2023/09/19 10:18:32;;;;;;;;;1.00;1.00;;;;;29.41;39.12;101141.28;5030939;28;45499;-75
2023/09/19 10:20:59;;;;;;;;;0.67;0.67;;;;;29.48;38.96;101152.75;5030837;28;45662;-74
2023/09/19 10:23:27;;;;;;;;;0.67;0.00;;;;;29.46;38.98;101154.03;5030149;28;45888;-75
2023/09/19 10:25:53;;;;;;;;;0.67;0.00;;;;;29.45;39.31;101147.84;5030173;28;46544;-75
2023/09/19 10:28:23;;;;;;;;;0.00;0.00;;;;;29.44;39.04;101148.03;5029770;28;46537;-75
2023/09/19 10:30:51;;;;;;;;;0.67;0.00;;;;;29.44;38.94;101150.72;5029922;28;46465;-73
2023/09/19 10:33:20;;;;;;;;;2.00;2.00;;;;;29.43;38.93;101141.06;5030266;28;45503;-75
2023/09/19 10:35:47;;;;;;;;;1.67;1.67;;;;;29.44;38.96;101142.69;5030449;28;47324;-75
2023/09/19 10:38:14;;;;;;;;;3.00;2.00;;;;;29.43;39.13;101147.25;5029912;28;45855;-75
2023/09/19 10:40:43;;;;;;;;;2.00;1.67;;;;;29.43;39.10;101143.75;5030071;28;45400;-76
2023/09/19 10:43:12;;;;;;;;;0.33;0.33;;;;;29.42;39.41;101140.25;5030492;28;46348;-75
2023/09/19 10:45:40;;;;;;;;;1.33;0.67;;;;;29.39;39.22;101154.09;5028833;28;45402;-75
2023/09/19 10:48:07;;;;;;;;;1.67;1.00;;;;;29.40;39.17;101150.38;5029853;28;45379;-75
2023/09/19 10:50:44;;;;;;;;;1.00;1.00;;;;;29.30;39.03;101124.09;5030358;28;45463;-75
2023/09/19 10:53:12;;;;;;;;;0.67;0.67;;;;;29.38;39.19;101147.09;5030524;28;45613;-77
2023/09/19 10:55:38;;;;;;;;;2.00;0.00;;;;;29.26;39.32;101134.44;5030086;28;45845;-75
2023/09/19 10:58:14;;;;;;;;;0.00;0.00;;;;;29.24;39.37;101128.50;5030348;28;45904;-76
2023/09/19 11:01:17;;;;;;;;;0.33;0.33;;;;;29.31;39.33;101141.81;5030338;28;45466;-75
2023/09/19 11:03:45;;;;;;;;;1.00;1.00;;;;;29.28;39.68;101143.06;5033414;28;45528;-76
2023/09/19 11:06:17;;;;;;;;;1.67;1.00;;;;;29.25;39.49;101146.19;5033278;28;46172;-79
2023/09/19 11:08:52;;;;;;;;;2.67;0.00;;;;;29.24;38.39;101146.41;5029455;28;46586;-74
2023/09/19 11:11:39;;;;;;;;;2.00;2.00;;;;;29.12;37.67;101147.13;5031278;28;45606;-75
2023/09/19 11:14:25;;;;;;;;;0.67;0.00;;;;;29.02;37.72;101146.81;5034032;28;45521;-74
2023/09/19 11:17:15;;;;;;;;;0.00;0.00;;;;;28.99;37.90;101150.75;5065282;28;46023;-74
2023/09/19 11:22:53;;;;;;;;;1.33;1.33;;;;;28.99;38.30;101140.03;5030822;28;45573;-74
2023/09/19 11:25:30;;;;;;;;;0.00;0.00;;;;;29.00;37.98;101144.34;5032286;28;45426;-75
2023/09/19 11:30:43;;;;;;;;;1.00;1.00;;;;;29.02;38.57;101138.75;5030259;28;45561;-74
2023/09/19 11:33:28;;;;;;;;;1.33;0.00;;;;;28.64;38.45;101085.16;5032615;28;45434;-74
2023/09/19 11:36:15;;;;;;;;;1.33;1.33;;;;;29.02;38.76;101130.72;5032527;28;45667;-74
2023/09/19 11:38:52;;;;;;;;;2.33;1.33;;;;;29.04;38.49;101134.03;5032184;28;46320;-74